createdAt,value
2018-12-01T08:56:18.565Z,100470.33
2018-12-01T08:58:47.710Z,100466.88
2018-12-01T09:01:17.898Z,100468.61
2018-12-01T09:03:46.951Z,100473.96
2018-12-01T09:06:16.006Z,100477.14
2018-12-01T09:08:45.345Z,100472.39
2018-12-01T09:11:14.698Z,100473.67
2018-12-01T09:13:44.096Z,100480.38
2018-12-01T09:16:13.851Z,100476.95
2018-12-01T09:18:43.061Z,100475.52
2018-12-01T09:21:12.287Z,100468.69
2018-12-01T09:23:41.581Z,100476.50
2018-12-01T09:26:10.855Z,100470.61
2018-12-01T09:28:40.203Z,100466.27
2018-12-01T09:31:09.461Z,100463.02
2018-12-01T09:33:38.683Z,100469.26
2018-12-01T09:36:08.001Z,100467.02
2018-12-01T09:38:37.215Z,100470.48
2018-12-01T09:41:06.565Z,100464.37
2018-12-01T09:43:35.902Z,100471.27
2018-12-01T09:46:05.234Z,100465.53
2018-12-01T09:48:34.450Z,100467.65
2018-12-01T09:51:04.004Z,100461.48
2018-12-01T09:53:33.175Z,100460.28
2018-12-01T09:56:02.618Z,100458.91
2018-12-01T09:58:31.867Z,100456.77
2018-12-01T10:01:02.662Z,100452.70
2018-12-01T10:03:31.008Z,100456.45
2018-12-01T10:06:00.313Z,100450.47
2018-12-01T10:08:29.635Z,100457.37
2018-12-01T10:10:58.854Z,100455.21
2018-12-01T10:13:28.171Z,100460.69
2018-12-01T10:15:57.410Z,100462.95
2018-12-01T10:18:26.648Z,100469.37
2018-12-01T10:20:55.743Z,100468.00
2018-12-01T10:23:25.516Z,100461.52
2018-12-01T10:25:54.675Z,100458.59
2018-12-01T10:28:23.996Z,100452.80
2018-12-01T10:30:53.205Z,100451.82
2018-12-01T10:33:22.473Z,100458.70
2018-12-01T10:35:51.767Z,100450.23
2018-12-01T10:38:21.098Z,100456.32
2018-12-01T10:40:50.269Z,100463.77
2018-12-01T10:43:19.942Z,100456.39
2018-12-01T10:45:50.193Z,100447.59
2018-12-01T10:48:19.270Z,100447.17
2018-12-01T10:50:49.358Z,100440.73
2018-12-01T10:53:18.386Z,100436.04
2018-12-01T10:55:47.980Z,100435.94
